Time;durP1;ratioP1;P1;durP2;ratioP2;P2;SDS_P1;SDS_P2;PMS_P1;PMS_P2;Temp;Humidity;BMP_temperature;BMP_pressure;BME280_temperature;BME280_humidity;BME280_pressure;Samples;Min_cycle;Max_cycle;Signal;HPM_P1;HPM_P2
2023/10/31 00:02:03;;;;;;;;;;;12.30;99.90;;;;;;5025748;28;19922;-79
2023/10/31 00:04:30;;;;;;;;;;;12.20;99.90;;;;;;5028791;28;19975;-81
2023/10/31 00:06:58;;;;;;;;;;;12.20;99.90;;;;;;5019645;28;20367;-81
2023/10/31 00:09:26;;;;;;;;;;;12.20;99.90;;;;;;5024745;28;19925;-78
2023/10/31 00:11:54;;;;;;;;;;;12.10;99.90;;;;;;5027459;28;19921;-79
2023/10/31 00:14:21;;;;;;;;;;;12.10;99.90;;;;;;5027780;28;19924;-79
2023/10/31 00:16:58;;;;;;;;;;;12.10;99.90;;;;;;5027495;28;19959;-78
2023/10/31 00:19:27;;;;;;;;;;;12.10;99.90;;;;;;5014288;28;19944;-79
2023/10/31 00:21:55;;;;;;;;;;;12.00;99.90;;;;;;5013019;28;19925;-81
2023/10/31 00:24:23;;;;;;;;;;;12.00;99.90;;;;;;5021530;28;20391;-78
2023/10/31 00:26:51;;;;;;;;;;;12.10;99.90;;;;;;5020311;28;19925;-79
2023/10/31 00:29:19;;;;;;;;;;;12.00;99.90;;;;;;5012234;28;19952;-79
2023/10/31 00:31:46;;;;;;;;;;;11.90;99.90;;;;;;5020164;28;19926;-79
2023/10/31 00:34:14;;;;;;;;;;;11.90;99.90;;;;;;5020047;28;19921;-79
2023/10/31 00:36:43;;;;;;;;;;;12.00;99.90;;;;;;5027937;28;19921;-80
2023/10/31 00:39:11;;;;;;;;;;;12.00;99.90;;;;;;5012046;28;19925;-78
2023/10/31 00:41:40;;;;;;;;;;;12.00;99.90;;;;;;5023401;28;20331;-79
2023/10/31 00:44:07;;;;;;;;;;;12.00;99.90;;;;;;5024452;28;19929;-77
2023/10/31 00:46:35;;;;;;;;;;;12.00;99.90;;;;;;5022749;28;19975;-77
2023/10/31 00:49:04;;;;;;;;;;;12.00;99.90;;;;;;5026312;28;19921;-79
2023/10/31 00:51:33;;;;;;;;;;;12.00;99.90;;;;;;5024867;28;19921;-79
2023/10/31 00:54:02;;;;;;;;;;;12.00;99.90;;;;;;5026408;28;19975;-79
2023/10/31 00:56:29;;;;;;;;;;;11.90;99.90;;;;;;5024794;28;19971;-80
2023/10/31 00:58:57;;;;;;;;;;;12.00;99.90;;;;;;5021564;28;20459;-81
2023/10/31 01:01:25;;;;;;;;;;;11.90;99.90;;;;;;5025832;28;19952;-83
2023/10/31 01:03:53;;;;;;;;;;;12.00;99.90;;;;;;5030000;28;20538;-77
2023/10/31 01:06:21;;;;;;;;;;;11.90;99.90;;;;;;5025811;28;20376;-79
2023/10/31 01:08:49;;;;;;;;;;;11.90;99.90;;;;;;5027033;28;19928;-79
2023/10/31 01:11:18;;;;;;;;;;;11.90;99.90;;;;;;5019177;28;20277;-80
2023/10/31 01:13:46;;;;;;;;;;;11.90;99.90;;;;;;5025040;28;19933;-78
2023/10/31 01:16:13;;;;;;;;;;;11.90;99.90;;;;;;5024690;28;20019;-78
2023/10/31 01:18:41;;;;;;;;;;;11.90;99.90;;;;;;5023911;28;19947;-79
2023/10/31 01:21:09;;;;;;;;;;;11.80;99.90;;;;;;4986735;28;19957;-79
2023/10/31 01:23:37;;;;;;;;;;;11.80;99.90;;;;;;4981125;28;19926;-80
2023/10/31 01:26:05;;;;;;;;;;;11.80;99.90;;;;;;4985017;28;20405;-81
2023/10/31 01:28:34;;;;;;;;;;;11.80;99.90;;;;;;4984424;28;19922;-82
2023/10/31 01:31:02;;;;;;;;;;;11.80;99.90;;;;;;4992435;28;19989;-80
2023/10/31 01:33:30;;;;;;;;;;;11.80;99.90;;;;;;4984759;28;19929;-81
2023/10/31 01:35:58;;;;;;;;;;;11.80;99.90;;;;;;4982800;28;19922;-80
2023/10/31 01:42:14;;;;;;;;;;;11.70;99.90;;;;;;4981404;28;19917;-80
2023/10/31 01:44:43;;;;;;;;;;;11.80;99.90;;;;;;4984559;28;19984;-81
2023/10/31 01:47:11;;;;;;;;;;;11.70;99.90;;;;;;4981655;28;20061;-80
2023/10/31 01:49:39;;;;;;;;;;;11.70;99.90;;;;;;4978979;28;19922;-79
2023/10/31 01:52:07;;;;;;;;;;;11.70;99.90;;;;;;4979187;28;19929;-78
2023/10/31 01:54:35;;;;;;;;;;;11.60;99.90;;;;;;4975868;28;19928;-78
2023/10/31 01:57:04;;;;;;;;;;;11.60;99.90;;;;;;4985789;28;20301;-78
2023/10/31 01:59:32;;;;;;;;;;;11.60;99.90;;;;;;4982491;28;20344;-78
2023/10/31 02:02:01;;;;;;;;;;;11.50;99.90;;;;;;4975958;28;20024;-78
2023/10/31 02:04:29;;;;;;;;;;;11.50;99.90;;;;;;4975999;28;19922;-79
2023/10/31 02:06:57;;;;;;;;;;;11.50;99.90;;;;;;4978758;28;19922;-80
2023/10/31 02:09:27;;;;;;;;;;;11.60;99.90;;;;;;4977542;28;20402;-82
2023/10/31 02:11:55;;;;;;;;;;;11.50;99.90;;;;;;4977563;28;19926;-79
2023/10/31 02:14:22;;;;;;;;;;;11.50;99.90;;;;;;4975901;28;19957;-77
2023/10/31 02:16:50;;;;;;;;;;;11.50;99.90;;;;;;4978556;28;19926;-79
2023/10/31 02:19:20;;;;;;;;;;;11.50;99.90;;;;;;4988429;28;19928;-79
2023/10/31 02:21:49;;;;;;;;;;;11.50;99.90;;;;;;5018682;28;20274;-82
2023/10/31 02:24:17;;;;;;;;;;;11.50;99.90;;;;;;5027788;28;19932;-80
2023/10/31 02:26:44;;;;;;;;;;;11.60;99.90;;;;;;5021272;28;19956;-80
2023/10/31 02:29:12;;;;;;;;;;;11.60;99.90;;;;;;5031536;28;19931;-81
2023/10/31 02:31:40;;;;;;;;;;;11.70;99.90;;;;;;5042397;28;19927;-82
2023/10/31 02:34:08;;;;;;;;;;;11.70;99.90;;;;;;5034784;28;19925;-83
2023/10/31 02:36:36;;;;;;;;;;;11.60;99.90;;;;;;5038088;28;19921;-81
2023/10/31 02:39:05;;;;;;;;;;;11.60;99.90;;;;;;5034411;28;19921;-80
2023/10/31 02:41:33;;;;;;;;;;;11.60;99.90;;;;;;5038013;28;19928;-80
2023/10/31 02:44:01;;;;;;;;;;;11.50;99.90;;;;;;5035931;28;19930;-82
2023/10/31 02:46:29;;;;;;;;;;;11.60;99.90;;;;;;5030073;28;19971;-84
2023/10/31 02:48:56;;;;;;;;;;;11.60;99.90;;;;;;5024308;28;20368;-79
2023/10/31 02:51:24;;;;;;;;;;;11.60;99.90;;;;;;5023294;28;19929;-80
2023/10/31 02:53:52;;;;;;;;;;;11.50;99.90;;;;;;5015207;28;19921;-79
2023/10/31 02:56:21;;;;;;;;;;;11.50;99.90;;;;;;5019278;28;19932;-80
2023/10/31 02:58:49;;;;;;;;;;;11.40;99.90;;;;;;5019316;28;19929;-80
2023/10/31 03:01:17;;;;;;;;;;;11.30;99.90;;;;;;5027717;28;19921;-80
2023/10/31 03:03:45;;;;;;;;;;;11.20;99.90;;;;;;5029671;28;19928;-80
2023/10/31 03:06:13;;;;;;;;;;;11.20;99.90;;;;;;5029822;28;20296;-80
2023/10/31 03:08:41;;;;;;;;;;;11.20;99.90;;;;;;5019196;28;19925;-79
2023/10/31 03:11:09;;;;;;;;;;;11.10;99.90;;;;;;5017723;28;19936;-80
2023/10/31 03:13:38;;;;;;;;;;;11.20;99.90;;;;;;5025896;28;19964;-81
2023/10/31 03:16:06;;;;;;;;;;;11.20;99.90;;;;;;5017414;28;20008;-81
2023/10/31 03:18:34;;;;;;;;;;;11.20;99.90;;;;;;5025073;28;19952;-80
2023/10/31 03:21:02;;;;;;;;;;;11.20;99.90;;;;;;5017426;28;19925;-80
2023/10/31 03:23:29;;;;;;;;;;;11.20;99.90;;;;;;5017304;28;19921;-81
2023/10/31 03:25:57;;;;;;;;;;;11.10;99.90;;;;;;5024495;28;19925;-81
2023/10/31 03:28:25;;;;;;;;;;;11.10;99.90;;;;;;5024919;28;19944;-82
2023/10/31 03:30:54;;;;;;;;;;;11.10;99.90;;;;;;5021922;28;19926;-78
2023/10/31 03:33:23;;;;;;;;;;;11.20;99.90;;;;;;5028843;28;19975;-79
2023/10/31 03:35:51;;;;;;;;;;;11.20;99.90;;;;;;5021603;28;19933;-78
2023/10/31 03:38:19;;;;;;;;;;;11.10;99.90;;;;;;5021233;28;19933;-76
2023/10/31 03:40:47;;;;;;;;;;;11.10;99.90;;;;;;5020534;28;19925;-77
2023/10/31 03:43:14;;;;;;;;;;;11.10;99.90;;;;;;5021610;28;19924;-77
2023/10/31 03:45:42;;;;;;;;;;;11.10;99.90;;;;;;5016853;28;19925;-79
2023/10/31 03:48:11;;;;;;;;;;;11.10;99.90;;;;;;5029338;28;20311;-80
2023/10/31 03:50:39;;;;;;;;;;;11.00;99.90;;;;;;5027243;28;20388;-78
2023/10/31 03:53:07;;;;;;;;;;;11.10;99.90;;;;;;5031738;28;19929;-79
2023/10/31 03:55:35;;;;;;;;;;;11.10;99.90;;;;;;5014875;28;19925;-80
2023/10/31 03:58:02;;;;;;;;;;;11.20;99.90;;;;;;5034575;28;19944;-82
2023/10/31 04:00:30;;;;;;;;;;;11.20;99.90;;;;;;5027242;28;19928;-79
2023/10/31 04:02:58;;;;;;;;;;;11.20;99.90;;;;;;5017656;28;19975;-78
2023/10/31 04:05:28;;;;;;;;;;;11.20;99.90;;;;;;5035098;28;19947;-79
2023/10/31 04:07:55;;;;;;;;;;;11.20;99.90;;;;;;5025977;28;19925;-79
2023/10/31 04:10:25;;;;;;;;;;;11.20;99.90;;;;;;5028611;28;19984;-81
2023/10/31 04:12:53;;;;;;;;;;;11.20;99.90;;;;;;5023770;28;20307;-79
2023/10/31 04:15:20;;;;;;;;;;;11.10;99.90;;;;;;5016603;28;19921;-79
2023/10/31 04:17:48;;;;;;;;;;;11.30;99.90;;;;;;5025637;28;19921;-79
2023/10/31 04:20:16;;;;;;;;;;;11.40;99.90;;;;;;5021781;28;19928;-79
2023/10/31 04:22:45;;;;;;;;;;;11.50;99.90;;;;;;5032696;28;19992;-80
2023/10/31 04:25:13;;;;;;;;;;;11.40;99.90;;;;;;5015960;28;19932;-79
2023/10/31 04:27:41;;;;;;;;;;;11.50;99.90;;;;;;5015193;28;20288;-79
2023/10/31 04:30:09;;;;;;;;;;;11.60;99.90;;;;;;5033617;28;20372;-79
2023/10/31 04:32:41;;;;;;;;;;;11.60;99.90;;;;;;5043733;22;20583;-62
2023/10/31 04:35:09;;;;;;;;;;;11.40;99.90;;;;;;5023489;28;20014;-64
2023/10/31 04:37:36;;;;;;;;;;;11.40;99.90;;;;;;5027826;28;19928;-62
2023/10/31 04:40:06;;;;;;;;;;;11.30;99.90;;;;;;5026857;28;19932;-63
2023/10/31 04:42:34;;;;;;;;;;;11.20;99.90;;;;;;5031331;28;19921;-63
2023/10/31 04:45:02;;;;;;;;;;;11.20;99.90;;;;;;5023218;28;19925;-63
2023/10/31 04:47:30;;;;;;;;;;;11.20;99.90;;;;;;5024134;28;20373;-63
2023/10/31 04:49:58;;;;;;;;;;;11.20;99.90;;;;;;5018814;28;19925;-63
2023/10/31 04:52:26;;;;;;;;;;;11.20;99.90;;;;;;5016641;28;20306;-63
2023/10/31 04:54:54;;;;;;;;;;;11.30;99.90;;;;;;5019540;28;19921;-63
2023/10/31 04:57:23;;;;;;;;;;;11.20;99.90;;;;;;5015632;28;19929;-63
2023/10/31 04:59:54;;;;;;;;;;;11.20;99.90;;;;;;5013633;28;19921;-62
2023/10/31 05:02:22;;;;;;;;;;;11.10;99.90;;;;;;5000264;28;19987;-63
2023/10/31 05:04:51;;;;;;;;;;;11.10;99.90;;;;;;5000862;28;20019;-63
2023/10/31 05:07:19;;;;;;;;;;;11.00;99.90;;;;;;5000639;28;19951;-63
2023/10/31 05:09:47;;;;;;;;;;;11.00;99.90;;;;;;4997807;28;19929;-62
2023/10/31 05:12:14;;;;;;;;;;;10.90;99.90;;;;;;4999958;28;19929;-61
2023/10/31 05:14:43;;;;;;;;;;;10.90;99.90;;;;;;4999960;28;20609;-63
2023/10/31 05:17:11;;;;;;;;;;;10.90;99.90;;;;;;5000064;28;20003;-62
2023/10/31 05:19:39;;;;;;;;;;;10.80;99.90;;;;;;4998340;28;20018;-62
2023/10/31 05:22:07;;;;;;;;;;;10.80;99.90;;;;;;5000047;28;20504;-62
2023/10/31 05:24:36;;;;;;;;;;;10.80;99.90;;;;;;5000111;28;20563;-63
2023/10/31 05:27:04;;;;;;;;;;;10.80;99.90;;;;;;5000085;28;19926;-63
2023/10/31 05:29:32;;;;;;;;;;;10.80;99.90;;;;;;5000599;28;20863;-64
2023/10/31 05:32:01;;;;;;;;;;;10.80;99.90;;;;;;5003770;28;20418;-63
2023/10/31 05:34:29;;;;;;;;;;;10.80;99.90;;;;;;5002978;28;19930;-63
2023/10/31 05:36:57;;;;;;;;;;;10.80;99.90;;;;;;5004410;28;20336;-63
2023/10/31 05:39:25;;;;;;;;;;;10.80;99.90;;;;;;5001087;28;19944;-62
2023/10/31 05:41:53;;;;;;;;;;;10.80;99.90;;;;;;5003621;28;19928;-62
2023/10/31 05:44:20;;;;;;;;;;;10.80;99.90;;;;;;5004377;28;19929;-63
2023/10/31 05:46:49;;;;;;;;;;;10.80;99.90;;;;;;5004466;28;19934;-62
2023/10/31 05:49:19;;;;;;;;;;;10.80;99.90;;;;;;5001736;28;19929;-63
2023/10/31 05:51:50;;;;;;;;;;;10.70;99.90;;;;;;5003913;28;20681;-63
2023/10/31 05:54:18;;;;;;;;;;;10.70;99.90;;;;;;5003421;28;19988;-63
2023/10/31 05:56:45;;;;;;;;;;;10.70;99.90;;;;;;5003549;28;19936;-64
2023/10/31 05:59:13;;;;;;;;;;;10.70;99.90;;;;;;5001811;28;19937;-63
2023/10/31 06:01:41;;;;;;;;;;;10.70;99.90;;;;;;5002819;28;20373;-63
2023/10/31 06:04:09;;;;;;;;;;;10.70;99.90;;;;;;5002583;28;19936;-62
2023/10/31 06:06:39;;;;;;;;;;;10.70;99.90;;;;;;5003662;28;20048;-62
2023/10/31 06:09:07;;;;;;;;;;;10.70;99.90;;;;;;5000966;28;19936;-63
2023/10/31 06:11:34;;;;;;;;;;;10.70;99.90;;;;;;5003447;28;19929;-63
2023/10/31 06:14:02;;;;;;;;;;;10.70;99.90;;;;;;5002523;28;19930;-63
2023/10/31 06:16:30;;;;;;;;;;;10.70;99.90;;;;;;5003031;28;20390;-63
2023/10/31 06:18:58;;;;;;;;;;;10.70;99.90;;;;;;5000212;28;20399;-63
2023/10/31 06:21:26;;;;;;;;;;;10.70;99.90;;;;;;5003345;28;20509;-62
2023/10/31 06:23:55;;;;;;;;;;;10.70;99.90;;;;;;5002409;28;19921;-63
2023/10/31 06:26:22;;;;;;;;;;;10.70;99.90;;;;;;5003132;28;20015;-63
2023/10/31 06:28:50;;;;;;;;;;;10.70;99.90;;;;;;5000423;28;21504;-62
2023/10/31 06:31:38;;;;;;;;;;;10.70;99.90;;;;;;5003525;28;20019;-62
2023/10/31 06:34:06;;;;;;;;;;;10.70;99.90;;;;;;5002833;28;19931;-62
2023/10/31 06:36:34;;;;;;;;;;;10.70;99.90;;;;;;5002478;28;19925;-62
2023/10/31 06:39:03;;;;;;;;;;;10.70;99.90;;;;;;5001044;28;19983;-62
2023/10/31 06:41:31;;;;;;;;;;;10.70;99.90;;;;;;5001625;28;20395;-63
2023/10/31 06:43:58;;;;;;;;;;;10.70;99.90;;;;;;5002045;28;20011;-63
2023/10/31 06:46:27;;;;;;;;;;;10.70;99.90;;;;;;5002625;28;19976;-62
2023/10/31 06:48:55;;;;;;;;;;;10.70;99.90;;;;;;4999674;28;19941;-63
2023/10/31 06:51:23;;;;;;;;;;;10.70;99.90;;;;;;5002141;28;19921;-62
2023/10/31 06:53:51;;;;;;;;;;;10.70;99.90;;;;;;5001882;28;19979;-63
2023/10/31 06:56:20;;;;;;;;;;;10.70;99.90;;;;;;5014614;28;20343;-64
2023/10/31 06:58:48;;;;;;;;;;;10.60;99.90;;;;;;5013549;28;19944;-64
2023/10/31 07:01:19;;;;;;;;;;;10.70;99.90;;;;;;5010353;28;19995;-64
2023/10/31 07:03:47;;;;;;;;;;;10.70;99.90;;;;;;5021118;28;19928;-64
2023/10/31 07:06:15;;;;;;;;;;;10.70;99.90;;;;;;5007429;28;19921;-64
2023/10/31 07:08:43;;;;;;;;;;;10.70;99.90;;;;;;5022241;28;19975;-65
2023/10/31 07:11:11;;;;;;;;;;;10.70;99.90;;;;;;5032146;28;20087;-65
2023/10/31 07:13:40;;;;;;;;;;;10.60;99.90;;;;;;5024685;28;19928;-65
2023/10/31 07:16:08;;;;;;;;;;;10.70;99.90;;;;;;5022684;28;19926;-64
2023/10/31 07:18:36;;;;;;;;;;;10.70;99.90;;;;;;5022278;28;19968;-64
2023/10/31 07:21:05;;;;;;;;;;;10.70;99.90;;;;;;5024094;28;19951;-64
2023/10/31 07:23:32;;;;;;;;;;;10.70;99.90;;;;;;5014878;28;19921;-66
2023/10/31 07:26:02;;;;;;;;;;;10.70;99.90;;;;;;5025567;28;19976;-65
2023/10/31 07:28:30;;;;;;;;;;;10.70;99.90;;;;;;5012217;28;19927;-65
2023/10/31 07:31:00;;;;;;;;;;;10.70;99.90;;;;;;5018726;28;19925;-65
2023/10/31 07:33:28;;;;;;;;;;;10.70;99.90;;;;;;5011302;28;19929;-65
2023/10/31 07:35:56;;;;;;;;;;;10.60;99.90;;;;;;5012313;28;20007;-65
2023/10/31 07:38:24;;;;;;;;;;;10.70;99.90;;;;;;5012873;28;20340;-65
2023/10/31 07:40:51;;;;;;;;;;;10.70;99.90;;;;;;5012452;28;19921;-65
2023/10/31 07:43:19;;;;;;;;;;;10.70;99.90;;;;;;5004603;28;19928;-65
2023/10/31 07:45:47;;;;;;;;;;;10.70;99.90;;;;;;5012304;28;19928;-65
2023/10/31 07:48:17;;;;;;;;;;;10.70;99.90;;;;;;5012502;28;19921;-64
2023/10/31 07:50:45;;;;;;;;;;;10.70;99.90;;;;;;5012233;28;19928;-65
2023/10/31 07:53:13;;;;;;;;;;;10.70;99.90;;;;;;5011257;28;19921;-65
2023/10/31 07:55:40;;;;;;;;;;;10.70;99.90;;;;;;5012313;28;19921;-65
2023/10/31 07:58:09;;;;;;;;;;;10.70;99.90;;;;;;5012074;28;19925;-65
2023/10/31 08:00:39;;;;;;;;;;;10.70;99.90;;;;;;5012045;28;19928;-65
2023/10/31 08:03:06;;;;;;;;;;;10.80;99.90;;;;;;5012072;28;19937;-64
2023/10/31 08:05:36;;;;;;;;;;;10.80;99.90;;;;;;5012071;28;19928;-66
2023/10/31 08:08:04;;;;;;;;;;;10.80;99.90;;;;;;5012022;28;19922;-65
2023/10/31 08:10:34;;;;;;;;;;;10.90;99.90;;;;;;5012052;28;19927;-64
2023/10/31 08:13:01;;;;;;;;;;;10.90;99.90;;;;;;5011671;28;19928;-65
2023/10/31 08:15:29;;;;;;;;;;;10.90;99.90;;;;;;5012145;28;19948;-64
2023/10/31 08:17:57;;;;;;;;;;;11.00;99.90;;;;;;5012062;28;19921;-64
2023/10/31 08:20:24;;;;;;;;;;;11.00;99.90;;;;;;5003967;28;19929;-64
2023/10/31 08:22:53;;;;;;;;;;;11.00;99.90;;;;;;5011946;28;20044;-64
2023/10/31 08:25:22;;;;;;;;;;;11.00;99.90;;;;;;5011529;28;19922;-64
2023/10/31 08:27:50;;;;;;;;;;;11.00;99.90;;;;;;5011856;28;19925;-64
2023/10/31 08:30:18;;;;;;;;;;;11.10;99.90;;;;;;5011480;28;19921;-64
2023/10/31 08:32:46;;;;;;;;;;;11.20;99.90;;;;;;5011537;28;19921;-64
2023/10/31 08:35:13;;;;;;;;;;;11.30;99.90;;;;;;5011590;28;19972;-64
2023/10/31 08:37:42;;;;;;;;;;;11.30;99.90;;;;;;5011769;28;20375;-63
2023/10/31 08:40:11;;;;;;;;;;;11.40;99.90;;;;;;5011363;28;20315;-63
2023/10/31 08:42:39;;;;;;;;;;;11.40;99.90;;;;;;5011127;28;20528;-63
2023/10/31 08:45:07;;;;;;;;;;;11.50;99.90;;;;;;5011799;28;19921;-63
2023/10/31 08:47:35;;;;;;;;;;;11.50;99.90;;;;;;5011565;28;20293;-63
2023/10/31 08:50:03;;;;;;;;;;;11.50;99.90;;;;;;5011246;28;19921;-63
2023/10/31 08:52:31;;;;;;;;;;;11.50;99.90;;;;;;5011348;28;20016;-63
2023/10/31 08:54:58;;;;;;;;;;;11.60;99.90;;;;;;5011595;28;19928;-64
2023/10/31 08:57:28;;;;;;;;;;;11.70;99.90;;;;;;5008761;28;19921;-66
2023/10/31 08:59:58;;;;;;;;;;;11.70;99.90;;;;;;5011588;28;20279;-66
2023/10/31 09:02:26;;;;;;;;;;;11.70;99.90;;;;;;5011091;28;20311;-63
2023/10/31 09:04:54;;;;;;;;;;;11.80;99.90;;;;;;5017409;28;20016;-63
2023/10/31 09:07:22;;;;;;;;;;;11.80;99.90;;;;;;5017569;28;20103;-64
2023/10/31 09:09:50;;;;;;;;;;;11.80;99.90;;;;;;5017834;28;19925;-63
2023/10/31 09:12:17;;;;;;;;;;;11.80;99.90;;;;;;5017424;28;19921;-64
2023/10/31 09:14:46;;;;;;;;;;;11.90;99.90;;;;;;5018017;28;19921;-64
2023/10/31 09:17:14;;;;;;;;;;;11.90;99.90;;;;;;5025530;28;20347;-64
2023/10/31 09:19:42;;;;;;;;;;;12.00;99.90;;;;;;5017751;28;19922;-64
2023/10/31 09:22:10;;;;;;;;;;;12.00;99.90;;;;;;5017396;28;19936;-64
2023/10/31 09:24:38;;;;;;;;;;;11.90;99.90;;;;;;5017895;28;19971;-64
2023/10/31 09:27:06;;;;;;;;;;;12.00;99.90;;;;;;5017343;28;19922;-63
2023/10/31 09:29:34;;;;;;;;;;;12.00;99.90;;;;;;5017752;28;19921;-64
2023/10/31 09:32:05;;;;;;;;;;;12.10;99.90;;;;;;5017060;28;19921;-64
2023/10/31 09:34:33;;;;;;;;;;;12.10;99.90;;;;;;5010206;28;19921;-64
2023/10/31 09:37:00;;;;;;;;;;;12.10;99.90;;;;;;5017603;28;19925;-64
2023/10/31 09:39:28;;;;;;;;;;;12.10;99.90;;;;;;5017555;28;19921;-65
2023/10/31 09:41:56;;;;;;;;;;;12.10;99.90;;;;;;5017521;28;19930;-64
2023/10/31 09:44:24;;;;;;;;;;;12.10;99.90;;;;;;5017661;28;19922;-64
2023/10/31 09:46:52;;;;;;;;;;;12.20;99.90;;;;;;5017503;28;19927;-64
2023/10/31 09:49:21;;;;;;;;;;;12.20;99.90;;;;;;5017365;28;20447;-64
2023/10/31 09:51:49;;;;;;;;;;;12.20;99.90;;;;;;5017545;28;19921;-64
2023/10/31 09:54:18;;;;;;;;;;;12.30;99.90;;;;;;5017297;28;20411;-65
2023/10/31 09:56:46;;;;;;;;;;;12.30;99.90;;;;;;5017321;28;19921;-64
2023/10/31 09:59:14;;;;;;;;;;;12.30;99.90;;;;;;5017153;28;19922;-64
2023/10/31 10:01:42;;;;;;;;;;;12.30;99.90;;;;;;5017416;28;20346;-64
2023/10/31 10:04:10;;;;;;;;;;;12.30;99.90;;;;;;5017210;28;19928;-64
2023/10/31 10:06:50;;;;;;;;;;;12.30;99.90;;;;;;5017714;28;19925;-65
2023/10/31 10:09:18;;;;;;;;;;;12.30;99.90;;;;;;5017286;28;20372;-64
2023/10/31 10:11:45;;;;;;;;;;;12.40;99.90;;;;;;5017280;28;19928;-64
2023/10/31 10:14:13;;;;;;;;;;;12.50;99.90;;;;;;5016944;28;19968;-64
2023/10/31 10:16:41;;;;;;;;;;;12.60;99.90;;;;;;5013354;28;19936;-65
2023/10/31 10:19:16;;;;;;;;;;;12.60;99.90;;;;;;5014164;28;19933;-63
2023/10/31 10:21:49;;;;;;;;;;;12.60;99.90;;;;;;5014108;28;19944;-64
2023/10/31 10:24:17;;;;;;;;;;;12.70;99.90;;;;;;5013805;28;19921;-64
2023/10/31 10:26:45;;;;;;;;;;;13.00;99.90;;;;;;5013958;28;20304;-63
2023/10/31 10:29:13;;;;;;;;;;;13.00;99.90;;;;;;5013761;28;19968;-64
2023/10/31 10:31:41;;;;;;;;;;;13.20;99.90;;;;;;5013874;28;19921;-64
2023/10/31 10:34:10;;;;;;;;;;;13.50;99.90;;;;;;5043756;23;19921;-69
2023/10/31 10:36:37;;;;;;;;;;;13.60;99.90;;;;;;5013461;28;19921;-70
2023/10/31 10:39:07;;;;;;;;;;;14.00;99.90;;;;;;5029652;28;19921;-68
2023/10/31 10:41:35;;;;;;;;;;;14.20;99.90;;;;;;5033386;28;19925;-71
2023/10/31 11:02:37;;;;;;;;;;;15.00;99.90;;;;;;5012780;28;19920;-72
2023/10/31 11:05:07;;;;;;;;;;;15.00;99.90;;;;;;5013453;28;20411;-72
2023/10/31 11:07:35;;;;;;;;;;;14.80;99.90;;;;;;5013120;28;19928;-72
2023/10/31 11:10:04;;;;;;;;;;;15.00;99.90;;;;;;5013203;28;19957;-72
2023/10/31 11:12:33;;;;;;;;;;;14.90;99.90;;;;;;5012886;28;19928;-71
2023/10/31 11:15:02;;;;;;;;;;;14.80;99.90;;;;;;5006910;28;19972;-71
2023/10/31 11:17:32;;;;;;;;;;;14.90;99.90;;;;;;5003869;28;19981;-71
2023/10/31 11:20:01;;;;;;;;;;;14.90;99.90;;;;;;5005003;28;20329;-72
2023/10/31 11:22:37;;;;;;;;;;;15.00;99.90;;;;;;5012683;28;19975;-71
2023/10/31 11:25:05;;;;;;;;;;;15.10;99.90;;;;;;5013189;28;19921;-72
2023/10/31 11:27:41;;;;;;;;;;;15.10;99.90;;;;;;5009148;28;19926;-71
2023/10/31 11:30:20;;;;;;;;;;;15.10;99.90;;;;;;5001319;28;19928;-72
2023/10/31 11:32:48;;;;;;;;;;;15.10;99.90;;;;;;5005525;28;20304;-72
2023/10/31 11:35:18;;;;;;;;;;;15.10;99.90;;;;;;5012819;28;19969;-70
2023/10/31 11:37:48;;;;;;;;;;;15.00;99.90;;;;;;5013337;28;20008;-72
2023/10/31 11:40:16;;;;;;;;;;;14.80;99.90;;;;;;5012773;28;19929;-71
2023/10/31 11:42:44;;;;;;;;;;;14.90;99.90;;;;;;5012461;28;19921;-71
2023/10/31 11:45:12;;;;;;;;;;;14.90;99.90;;;;;;5012705;28;19988;-71
2023/10/31 11:47:46;;;;;;;;;;;14.90;99.90;;;;;;5012605;28;20277;-69
2023/10/31 11:50:14;;;;;;;;;;;14.90;99.90;;;;;;5010386;28;20025;-72
2023/10/31 11:52:44;;;;;;;;;;;15.10;99.90;;;;;;5012435;28;20376;-71
2023/10/31 11:55:12;;;;;;;;;;;15.10;99.90;;;;;;5012685;28;19925;-71
2023/10/31 11:57:40;;;;;;;;;;;15.00;99.90;;;;;;5004407;28;19921;-70
2023/10/31 12:00:20;;;;;;;;;;;15.00;99.90;;;;;;5012338;28;19925;-72
2023/10/31 12:02:58;;;;;;;;;;;14.90;99.90;;;;;;5004471;28;19927;-69
2023/10/31 12:05:26;;;;;;;;;;;15.30;99.90;;;;;;5012109;28;20347;-69
2023/10/31 12:07:56;;;;;;;;;;;15.10;99.90;;;;;;5012092;28;20295;-72
2023/10/31 12:10:25;;;;;;;;;;;15.00;99.90;;;;;;5011838;28;19921;-73
2023/10/31 12:12:52;;;;;;;;;;;14.80;99.90;;;;;;5011995;28;19928;-70
2023/10/31 12:15:20;;;;;;;;;;;14.80;99.90;;;;;;5011827;28;19928;-70
2023/10/31 12:17:48;;;;;;;;;;;14.50;99.90;;;;;;5012204;28;20040;-71
2023/10/31 12:20:16;;;;;;;;;;;14.30;99.90;;;;;;5011991;28;19975;-71
2023/10/31 12:22:44;;;;;;;;;;;14.30;99.90;;;;;;5011695;28;19928;-70
2023/10/31 12:25:13;;;;;;;;;;;14.30;99.90;;;;;;5012157;28;20422;-70
2023/10/31 12:27:46;;;;;;;;;;;14.10;99.90;;;;;;5011263;28;19921;-70
2023/10/31 12:30:14;;;;;;;;;;;14.10;99.90;;;;;;5003966;28;19922;-70
2023/10/31 12:32:42;;;;;;;;;;;14.10;99.90;;;;;;5000448;28;20301;-69
2023/10/31 12:35:15;;;;;;;;;;;14.10;99.90;;;;;;4999031;28;19921;-69
2023/10/31 12:37:45;;;;;;;;;;;14.10;99.90;;;;;;4999904;28;19922;-72
2023/10/31 12:40:17;;;;;;;;;;;14.10;99.90;;;;;;5000092;28;20001;-70
2023/10/31 12:42:46;;;;;;;;;;;14.10;99.90;;;;;;5003241;28;19925;-72
2023/10/31 12:45:14;;;;;;;;;;;14.10;99.90;;;;;;4996679;28;19944;-70
2023/10/31 12:47:42;;;;;;;;;;;14.30;99.90;;;;;;5002472;28;19922;-69
2023/10/31 12:50:10;;;;;;;;;;;14.50;99.90;;;;;;5002130;28;19975;-75
2023/10/31 12:52:48;;;;;;;;;;;14.60;99.90;;;;;;5016728;28;19932;-72
2023/10/31 12:55:18;;;;;;;;;;;14.60;99.90;;;;;;5011858;28;20048;-72
2023/10/31 12:57:47;;;;;;;;;;;14.60;99.90;;;;;;5011093;28;20243;-72
2023/10/31 13:00:15;;;;;;;;;;;14.50;99.90;;;;;;5003663;28;20347;-73
2023/10/31 13:02:43;;;;;;;;;;;14.30;99.90;;;;;;5000434;28;20423;-72
2023/10/31 13:05:13;;;;;;;;;;;14.30;99.90;;;;;;5006500;28;20308;-72
2023/10/31 13:07:41;;;;;;;;;;;14.20;99.90;;;;;;5011335;28;20324;-72
2023/10/31 13:10:10;;;;;;;;;;;14.30;99.90;;;;;;5003114;28;19921;-75
2023/10/31 13:12:39;;;;;;;;;;;14.30;99.90;;;;;;5001378;28;19921;-72
2023/10/31 13:15:07;;;;;;;;;;;14.20;99.90;;;;;;4997454;28;19929;-72
2023/10/31 13:17:37;;;;;;;;;;;14.30;99.90;;;;;;5011296;28;19987;-70
2023/10/31 13:20:06;;;;;;;;;;;14.40;99.90;;;;;;5011557;28;20178;-72
2023/10/31 13:22:34;;;;;;;;;;;14.50;99.90;;;;;;4994927;28;19929;-72
2023/10/31 13:25:04;;;;;;;;;;;14.50;99.90;;;;;;4998413;28;19928;-73
2023/10/31 13:27:32;;;;;;;;;;;14.50;99.90;;;;;;5009063;28;19932;-73
2023/10/31 13:30:01;;;;;;;;;;;14.40;99.90;;;;;;4998653;28;19925;-74
2023/10/31 13:32:29;;;;;;;;;;;14.40;99.90;;;;;;5007592;28;19925;-71
2023/10/31 13:34:56;;;;;;;;;;;14.40;99.90;;;;;;5003175;28;19926;-72
2023/10/31 13:37:24;;;;;;;;;;;14.50;99.90;;;;;;5003083;28;20399;-72
2023/10/31 13:39:52;;;;;;;;;;;14.60;99.90;;;;;;5003018;28;19925;-75
2023/10/31 13:42:20;;;;;;;;;;;14.60;99.90;;;;;;5011150;28;19929;-70
2023/10/31 13:44:48;;;;;;;;;;;14.50;99.90;;;;;;5002810;28;19935;-73
2023/10/31 13:47:17;;;;;;;;;;;14.50;99.90;;;;;;5004900;28;19925;-72
2023/10/31 13:49:45;;;;;;;;;;;14.50;99.90;;;;;;5001526;28;19922;-73
2023/10/31 13:52:13;;;;;;;;;;;14.50;99.90;;;;;;5014696;28;20395;-75
2023/10/31 13:54:41;;;;;;;;;;;14.50;99.90;;;;;;5014579;28;19975;-72
2023/10/31 13:57:08;;;;;;;;;;;14.60;99.90;;;;;;5013437;28;19929;-70
2023/10/31 13:59:36;;;;;;;;;;;14.60;99.90;;;;;;5005050;28;20017;-72
2023/10/31 14:02:05;;;;;;;;;;;14.50;99.90;;;;;;5003353;28;19968;-72
2023/10/31 14:04:35;;;;;;;;;;;14.50;99.90;;;;;;5002932;28;20016;-72
2023/10/31 14:07:03;;;;;;;;;;;14.50;99.90;;;;;;5007792;28;19921;-72
2023/10/31 14:09:31;;;;;;;;;;;14.50;99.90;;;;;;5014175;28;19925;-71
2023/10/31 14:11:59;;;;;;;;;;;14.40;99.90;;;;;;5014103;28;19928;-72
2023/10/31 14:14:27;;;;;;;;;;;14.40;99.90;;;;;;5014435;28;19922;-72
2023/10/31 14:16:54;;;;;;;;;;;14.30;99.90;;;;;;5014145;28;19927;-72
2023/10/31 14:19:22;;;;;;;;;;;14.30;99.90;;;;;;5007230;28;19922;-72
2023/10/31 14:21:52;;;;;;;;;;;14.20;99.90;;;;;;5013306;28;19929;-72
2023/10/31 14:24:21;;;;;;;;;;;14.20;99.90;;;;;;5014154;28;19929;-72
2023/10/31 14:26:49;;;;;;;;;;;14.20;99.90;;;;;;5012253;28;19925;-72
2023/10/31 14:29:17;;;;;;;;;;;14.20;99.90;;;;;;5007718;28;20389;-73
2023/10/31 14:31:45;;;;;;;;;;;14.10;99.90;;;;;;5004139;28;20201;-72
2023/10/31 14:34:12;;;;;;;;;;;14.10;99.90;;;;;;5000287;28;19925;-72
2023/10/31 14:36:40;;;;;;;;;;;14.10;99.90;;;;;;5003472;28;19929;-72
2023/10/31 14:39:11;;;;;;;;;;;14.00;99.90;;;;;;5005461;28;20301;-72
2023/10/31 14:41:39;;;;;;;;;;;13.90;99.90;;;;;;5004688;28;20304;-72
2023/10/31 14:44:08;;;;;;;;;;;13.80;99.90;;;;;;4994405;28;19931;-72
2023/10/31 14:46:36;;;;;;;;;;;13.80;99.90;;;;;;5010691;28;19921;-74